Time;durP1;ratioP1;P1;durP2;ratioP2;P2;SDS_P1;SDS_P2;PMS_P1;PMS_P2;Temp;Humidity;BMP_temperature;BMP_pressure;BME280_temperature;BME280_humidity;BME280_pressure;Samples;Min_cycle;Max_cycle;Signal;HPM_P1;HPM_P2
2021/03/03 00:01:24;;;;;;;57.13;22.90;;;2.40;99.90;;;;;;5048552;28;20028;-45
2021/03/03 00:03:50;;;;;;;48.58;22.10;;;2.30;99.90;;;;;;5048519;28;20029;-44
2021/03/03 00:06:15;;;;;;;49.10;22.60;;;2.30;99.90;;;;;;5047990;28;20029;-45
2021/03/03 00:08:41;;;;;;;56.78;23.90;;;2.30;99.90;;;;;;5048530;28;20053;-46
2021/03/03 00:11:06;;;;;;;50.50;23.92;;;2.30;99.90;;;;;;5047271;28;20025;-45
2021/03/03 00:13:32;;;;;;;48.85;23.48;;;2.20;99.90;;;;;;5048544;28;20029;-44
2021/03/03 00:15:57;;;;;;;46.63;22.58;;;2.20;99.90;;;;;;5047501;28;20482;-45
2021/03/03 00:18:23;;;;;;;54.80;23.17;;;2.20;99.90;;;;;;5048189;28;20025;-44
2021/03/03 00:20:48;;;;;;;46.17;22.92;;;2.20;99.90;;;;;;5052232;28;20391;-46
2021/03/03 00:23:14;;;;;;;46.63;21.88;;;2.20;99.90;;;;;;5052745;28;20109;-46
2021/03/03 00:25:40;;;;;;;51.53;22.42;;;2.20;99.90;;;;;;5052088;28;20627;-45
2021/03/03 00:28:05;;;;;;;45.90;22.17;;;2.20;99.90;;;;;;5052616;28;20107;-45
2021/03/03 00:30:31;;;;;;;46.15;21.35;;;2.10;99.90;;;;;;5052313;28;20045;-44
2021/03/03 00:32:56;;;;;;;46.70;21.55;;;2.10;99.90;;;;;;5052429;28;20611;-44
2021/03/03 00:35:22;;;;;;;50.22;22.95;;;2.10;99.90;;;;;;5051602;28;20082;-44
2021/03/03 00:37:47;;;;;;;53.83;24.30;;;2.10;99.90;;;;;;5052042;28;20047;-44
2021/03/03 00:40:13;;;;;;;51.20;23.48;;;2.10;99.90;;;;;;5050883;28;20021;-45
2021/03/03 00:42:39;;;;;;;45.70;21.52;;;2.10;99.90;;;;;;5052029;28;20025;-44
2021/03/03 00:45:06;;;;;;;50.13;22.48;;;2.10;99.90;;;;;;5051001;28;20021;-44
2021/03/03 00:47:31;;;;;;;50.97;22.95;;;2.00;99.90;;;;;;5052367;28;20033;-49
2021/03/03 00:49:57;;;;;;;42.75;20.83;;;1.90;99.90;;;;;;5051811;28;20389;-46
2021/03/03 00:52:22;;;;;;;48.20;22.30;;;1.90;99.90;;;;;;5051687;28;20031;-44
2021/03/03 00:54:48;;;;;;;45.47;21.00;;;1.90;99.90;;;;;;5051799;28;20573;-44
2021/03/03 00:57:13;;;;;;;52.70;22.70;;;1.90;99.90;;;;;;5051258;28;20032;-45
2021/03/03 00:59:39;;;;;;;45.55;21.20;;;1.80;99.90;;;;;;5051609;28;20021;-47
2021/03/03 01:02:04;;;;;;;50.50;23.08;;;1.80;99.90;;;;;;5051644;28;20100;-44
2021/03/03 01:04:30;;;;;;;42.83;21.55;;;1.80;99.90;;;;;;5051562;28;20025;-44
2021/03/03 01:06:55;;;;;;;45.78;22.58;;;1.80;99.90;;;;;;5050995;28;20402;-45
2021/03/03 01:09:21;;;;;;;47.85;21.95;;;1.80;99.90;;;;;;5051635;28;20040;-45
2021/03/03 01:11:47;;;;;;;50.40;24.17;;;1.80;99.90;;;;;;5051661;28;20075;-45
2021/03/03 01:14:12;;;;;;;55.28;22.67;;;1.80;99.90;;;;;;5049693;28;20060;-48
2021/03/03 01:16:39;;;;;;;49.08;23.08;;;1.70;99.90;;;;;;5050830;28;20033;-45
2021/03/03 01:19:04;;;;;;;51.55;22.88;;;1.70;99.90;;;;;;5051460;28;20021;-50
2021/03/03 01:21:30;;;;;;;56.25;24.77;;;1.60;99.90;;;;;;5051346;28;20482;-45
2021/03/03 01:23:55;;;;;;;54.38;24.40;;;1.60;99.90;;;;;;5051527;28;20301;-45
2021/03/03 01:26:21;;;;;;;45.67;21.55;;;1.60;99.90;;;;;;5050775;28;20133;-46
2021/03/03 01:28:46;;;;;;;48.70;22.20;;;1.60;99.90;;;;;;5051197;28;20492;-46
2021/03/03 01:31:12;;;;;;;53.38;23.30;;;1.50;99.90;;;;;;5050735;28;20120;-46
2021/03/03 01:33:37;;;;;;;48.50;22.45;;;1.50;99.90;;;;;;5051103;28;20036;-44
2021/03/03 01:36:03;;;;;;;51.47;23.15;;;1.50;99.90;;;;;;5049251;28;20060;-44
2021/03/03 01:38:29;;;;;;;55.60;22.58;;;1.50;99.90;;;;;;5051224;28;20144;-45
2021/03/03 01:40:55;;;;;;;52.08;23.65;;;1.50;99.90;;;;;;5051271;28;20033;-44
2021/03/03 01:43:21;;;;;;;55.08;25.02;;;1.50;99.90;;;;;;5051102;28;20306;-45
2021/03/03 01:45:49;;;;;;;43.10;21.00;;;1.50;99.90;;;;;;5049086;28;20100;-44
2021/03/03 01:48:14;;;;;;;52.40;22.42;;;1.50;99.90;;;;;;5050858;28;20042;-45
2021/03/03 01:50:41;;;;;;;51.60;23.02;;;1.50;99.90;;;;;;5051239;28;20024;-44
2021/03/03 01:53:07;;;;;;;47.83;22.10;;;1.40;99.90;;;;;;5051188;28;20017;-44
2021/03/03 01:55:33;;;;;;;42.78;21.52;;;1.40;99.90;;;;;;5048986;28;20530;-44
2021/03/03 01:57:58;;;;;;;50.05;22.30;;;1.30;99.90;;;;;;5050625;28;20031;-44
2021/03/03 02:00:24;;;;;;;46.50;21.48;;;1.30;99.90;;;;;;5050374;28;20257;-44
2021/03/03 02:02:50;;;;;;;45.40;22.15;;;1.30;99.90;;;;;;5049428;28;20552;-47
2021/03/03 02:05:15;;;;;;;52.17;24.02;;;1.30;99.90;;;;;;5050175;28;20064;-45
2021/03/03 02:07:59;;;;;;;50.63;21.42;;;1.30;99.90;;;;;;5050591;28;20029;-44
2021/03/03 02:10:46;;;;;;;46.38;21.85;;;1.20;99.90;;;;;;5050510;28;20947;-45
2021/03/03 02:13:25;;;;;;;50.85;22.73;;;1.30;99.90;;;;;;5050270;28;20032;-43
2021/03/03 02:15:52;;;;;;;55.20;23.38;;;1.20;99.90;;;;;;5049464;28;20179;-44
2021/03/03 02:18:18;;;;;;;48.47;22.27;;;1.20;99.90;;;;;;5050179;28;20029;-46
2021/03/03 02:21:01;;;;;;;56.78;25.45;;;1.20;99.90;;;;;;5050163;28;20021;-44
2021/03/03 02:23:55;;;;;;;47.30;22.00;;;1.20;99.90;;;;;;5050137;28;20075;-47
2021/03/03 02:26:33;;;;;;;46.67;22.10;;;1.30;99.90;;;;;;5049435;28;20029;-43
2021/03/03 02:29:02;;;;;;;43.97;21.27;;;1.20;99.90;;;;;;5050180;28;20029;-44
2021/03/03 02:31:28;;;;;;;49.50;22.27;;;1.10;99.90;;;;;;5049806;28;20028;-43
2021/03/03 02:33:54;;;;;;;57.33;23.48;;;1.10;99.90;;;;;;5048573;28;20032;-45
2021/03/03 02:36:22;;;;;;;51.85;23.13;;;1.10;99.90;;;;;;5049287;28;20033;-46
2021/03/03 02:38:48;;;;;;;48.67;24.92;;;1.00;99.90;;;;;;5049738;28;20535;-46
2021/03/03 02:41:15;;;;;;;50.53;22.42;;;1.10;99.90;;;;;;5049445;28;20029;-45
2021/03/03 02:43:42;;;;;;;48.33;22.13;;;1.00;99.90;;;;;;5049099;28;20032;-44
2021/03/03 02:46:09;;;;;;;54.70;24.73;;;1.00;99.90;;;;;;5049054;28;20108;-45
2021/03/03 02:48:35;;;;;;;51.75;24.50;;;1.00;99.90;;;;;;5049591;28;20186;-46
2021/03/03 02:51:01;;;;;;;48.15;21.05;;;1.00;99.90;;;;;;5049751;28;20108;-46
2021/03/03 02:53:26;;;;;;;43.28;21.73;;;1.00;99.90;;;;;;5049723;28;20033;-46
2021/03/03 02:55:52;;;;;;;46.38;21.65;;;0.90;99.90;;;;;;5049085;28;20391;-45
2021/03/03 02:58:20;;;;;;;50.80;21.00;;;0.90;99.90;;;;;;5049319;28;20166;-45
2021/03/03 03:00:48;;;;;;;53.50;23.25;;;0.90;99.90;;;;;;5049110;28;20020;-45
2021/03/03 03:03:19;;;;;;;51.10;22.30;;;0.90;99.90;;;;;;5049459;28;20032;-47
2021/03/03 03:05:57;;;;;;;53.58;23.77;;;0.90;99.90;;;;;;5049083;28;20382;-45
2021/03/03 03:08:23;;;;;;;45.72;22.02;;;0.90;99.90;;;;;;5049444;28;20021;-45
2021/03/03 03:10:49;;;;;;;47.25;22.95;;;0.90;99.90;;;;;;5048374;28;20116;-45
2021/03/03 03:13:17;;;;;;;47.70;22.50;;;0.90;99.90;;;;;;5049203;28;20033;-44
2021/03/03 03:15:44;;;;;;;48.00;20.98;;;0.90;99.90;;;;;;5048202;28;20585;-45
2021/03/03 03:18:24;;;;;;;52.33;22.48;;;0.90;99.90;;;;;;5049024;28;20029;-45
2021/03/03 03:20:52;;;;;;;48.45;23.33;;;0.90;99.90;;;;;;5047740;28;20029;-44
2021/03/03 03:23:20;;;;;;;55.42;24.73;;;0.90;99.90;;;;;;5049241;28;20057;-45
2021/03/03 03:25:46;;;;;;;48.78;24.45;;;0.90;99.90;;;;;;5048918;28;20079;-44
2021/03/03 03:28:12;;;;;;;47.85;22.65;;;0.90;99.90;;;;;;5049002;28;20033;-47
2021/03/03 03:30:39;;;;;;;47.80;22.48;;;0.90;99.90;;;;;;5048710;28;20075;-48
2021/03/03 03:33:05;;;;;;;53.97;23.30;;;0.90;99.90;;;;;;5049081;28;20107;-45
2021/03/03 03:35:31;;;;;;;43.92;22.02;;;0.80;99.90;;;;;;5048337;28;20490;-44
2021/03/03 03:37:57;;;;;;;46.75;22.70;;;0.80;99.90;;;;;;5048676;28;20029;-46
2021/03/03 03:40:23;;;;;;;47.95;23.05;;;0.80;99.90;;;;;;5048662;28;20055;-45
2021/03/03 03:42:53;;;;;;;54.50;24.77;;;0.80;99.90;;;;;;5048502;28;20029;-45
2021/03/03 03:45:22;;;;;;;53.70;23.88;;;0.80;99.90;;;;;;5047149;28;20108;-45
2021/03/03 03:47:48;;;;;;;56.83;24.42;;;0.80;99.90;;;;;;5048737;28;20458;-45
2021/03/03 03:50:15;;;;;;;54.17;24.88;;;0.80;99.90;;;;;;5048502;28;20048;-44
2021/03/03 03:52:40;;;;;;;51.80;24.48;;;0.80;99.90;;;;;;5048584;28;20033;-45
2021/03/03 03:55:06;;;;;;;57.92;26.52;;;0.80;99.90;;;;;;5047997;28;20470;-47
2021/03/03 03:57:46;;;;;;;56.17;25.52;;;0.80;99.90;;;;;;5048451;28;20454;-43
2021/03/03 04:00:12;;;;;;;57.28;26.75;;;0.80;99.90;;;;;;5048307;28;20025;-44
2021/03/03 04:02:38;;;;;;;52.90;25.13;;;0.70;99.90;;;;;;5048484;28;20037;-44
2021/03/03 04:05:04;;;;;;;53.10;24.92;;;0.70;99.90;;;;;;5048170;28;20029;-45
2021/03/03 04:07:29;;;;;;;52.97;24.40;;;0.70;99.90;;;;;;5048418;28;20028;-43
2021/03/03 04:09:54;;;;;;;50.90;24.88;;;0.60;99.90;;;;;;5046941;28;20113;-45
2021/03/03 04:12:20;;;;;;;54.67;25.55;;;0.60;99.90;;;;;;5048254;28;20021;-45
2021/03/03 04:14:45;;;;;;;54.45;25.23;;;0.60;99.90;;;;;;5047954;28;20428;-45
2021/03/03 04:17:11;;;;;;;54.95;25.08;;;0.60;99.90;;;;;;5046332;28;20053;-46
2021/03/03 04:19:36;;;;;;;56.25;26.10;;;0.60;99.90;;;;;;5048340;28;20033;-45
2021/03/03 04:22:02;;;;;;;64.72;30.25;;;0.60;99.90;;;;;;5046788;28;20415;-45
2021/03/03 04:24:28;;;;;;;62.78;27.08;;;0.60;99.90;;;;;;5048131;28;20083;-44
2021/03/03 04:26:53;;;;;;;56.45;26.45;;;0.60;99.90;;;;;;5047677;28;20090;-44
2021/03/03 04:29:18;;;;;;;56.65;25.80;;;0.50;99.90;;;;;;5048043;28;20040;-44
2021/03/03 04:31:44;;;;;;;54.50;24.90;;;0.50;99.90;;;;;;5046705;28;20025;-48
2021/03/03 04:34:09;;;;;;;58.03;25.42;;;0.60;99.90;;;;;;5048167;28;20430;-45
2021/03/03 04:36:35;;;;;;;58.90;25.45;;;0.50;99.90;;;;;;5047514;28;20039;-44
2021/03/03 04:39:00;;;;;;;53.72;23.98;;;0.50;99.90;;;;;;5048028;28;20363;-45
2021/03/03 04:41:27;;;;;;;60.35;27.98;;;0.50;99.90;;;;;;5048116;28;20057;-44
2021/03/03 04:43:52;;;;;;;56.10;25.60;;;0.60;99.90;;;;;;5047635;28;20377;-45
2021/03/03 04:46:18;;;;;;;57.22;28.30;;;0.60;99.90;;;;;;5047018;28;20029;-44
2021/03/03 04:48:43;;;;;;;61.83;29.65;;;0.60;99.90;;;;;;5048224;28;20033;-44
2021/03/03 04:51:09;;;;;;;71.10;32.53;;;0.60;99.90;;;;;;5048182;28;20135;-44
2021/03/03 04:53:34;;;;;;;59.33;27.73;;;0.60;99.90;;;;;;5047982;28;20266;-44
2021/03/03 04:56:00;;;;;;;64.75;27.13;;;0.60;99.90;;;;;;5047490;28;20037;-44
2021/03/03 04:58:25;;;;;;;68.53;29.45;;;0.50;99.90;;;;;;5047713;28;20053;-45
2021/03/03 05:00:51;;;;;;;54.20;25.25;;;0.50;99.90;;;;;;5051289;28;20025;-44
2021/03/03 05:03:16;;;;;;;56.15;26.77;;;0.50;99.90;;;;;;5062158;28;20112;-44
2021/03/03 05:05:42;;;;;;;61.85;27.35;;;0.50;99.90;;;;;;5069243;28;20021;-44
2021/03/03 05:08:07;;;;;;;60.90;27.70;;;0.50;99.90;;;;;;5070189;28;20021;-44
2021/03/03 05:10:33;;;;;;;60.40;27.65;;;0.40;99.90;;;;;;5071433;28;20029;-43
2021/03/03 05:12:58;;;;;;;59.95;27.20;;;0.40;99.90;;;;;;5071797;28;20189;-44
2021/03/03 05:15:24;;;;;;;60.13;26.85;;;0.40;99.90;;;;;;5049679;28;20525;-43
2021/03/03 05:17:49;;;;;;;65.22;27.48;;;0.40;99.90;;;;;;5051519;28;20028;-43
2021/03/03 05:20:15;;;;;;;60.10;27.63;;;0.40;99.90;;;;;;5051432;28;20021;-43
2021/03/03 05:22:41;;;;;;;64.30;27.42;;;0.40;99.90;;;;;;5051323;28;20104;-43
2021/03/03 05:25:07;;;;;;;62.25;27.35;;;0.40;99.90;;;;;;5049366;28;20184;-44
2021/03/03 05:27:32;;;;;;;66.25;27.85;;;0.40;99.90;;;;;;5051282;28;20036;-43
2021/03/03 05:29:58;;;;;;;67.20;29.45;;;0.40;99.90;;;;;;5050899;28;20044;-44
2021/03/03 05:32:23;;;;;;;60.25;27.13;;;0.40;99.90;;;;;;5049985;28;20029;-45
2021/03/03 05:34:49;;;;;;;67.78;28.98;;;0.40;99.90;;;;;;5051225;28;20021;-44
2021/03/03 05:37:14;;;;;;;59.28;26.50;;;0.40;99.90;;;;;;5072502;28;20171;-44
2021/03/03 05:39:40;;;;;;;64.65;28.92;;;0.40;99.90;;;;;;5073761;28;20458;-45
2021/03/03 05:42:06;;;;;;;58.00;26.50;;;0.30;99.90;;;;;;5070640;28;20017;-44
2021/03/03 05:44:32;;;;;;;60.63;27.95;;;0.30;99.90;;;;;;5059188;28;20576;-44
2021/03/03 05:46:58;;;;;;;61.42;27.73;;;0.30;99.90;;;;;;5058731;28;20020;-45
2021/03/03 05:49:27;;;;;;;50.67;25.90;;;0.30;99.90;;;;;;5058788;28;20044;-44
2021/03/03 05:51:58;;;;;;;53.45;25.35;;;0.30;99.90;;;;;;5057532;28;20028;-44
2021/03/03 05:54:25;;;;;;;59.35;27.27;;;0.30;99.90;;;;;;5054512;28;20078;-45
2021/03/03 05:56:50;;;;;;;59.53;27.40;;;0.30;99.90;;;;;;5070022;28;20036;-44
2021/03/03 05:59:16;;;;;;;60.92;26.80;;;0.40;99.90;;;;;;5070700;28;20031;-44
2021/03/03 06:01:44;;;;;;;62.92;27.95;;;0.30;99.90;;;;;;5070548;28;20031;-45
2021/03/03 06:04:10;;;;;;;56.08;29.00;;;0.30;99.90;;;;;;5070909;28;20021;-44
2021/03/03 06:06:40;;;;;;;63.40;26.02;;;0.30;99.90;;;;;;5067256;28;20298;-45
2021/03/03 06:09:06;;;;;;;58.58;26.83;;;0.40;99.90;;;;;;5067820;28;20398;-49
2021/03/03 06:11:32;;;;;;;56.40;26.38;;;0.30;99.90;;;;;;5057040;28;20036;-46
2021/03/03 06:14:01;;;;;;;62.53;26.35;;;0.40;99.90;;;;;;5059468;28;20037;-45
2021/03/03 06:16:27;;;;;;;56.88;26.20;;;0.40;99.90;;;;;;5055642;28;20036;-48
2021/03/03 06:18:55;;;;;;;62.35;27.15;;;0.40;99.90;;;;;;5064197;28;20028;-46
2021/03/03 06:21:29;;;;;;;60.33;27.17;;;0.40;99.90;;;;;;5064692;28;20510;-46
2021/03/03 06:24:11;;;;;;;58.90;26.75;;;0.40;99.90;;;;;;5049804;28;20032;-46
2021/03/03 06:27:00;;;;;;;58.58;27.00;;;0.40;99.90;;;;;;5057129;28;20033;-46
2021/03/03 06:29:25;;;;;;;59.95;27.60;;;0.50;99.90;;;;;;5064640;28;20033;-47
2021/03/03 06:31:51;;;;;;;50.72;24.80;;;0.50;99.90;;;;;;5058977;28;20060;-46
2021/03/03 06:34:22;;;;;;;54.42;25.65;;;0.50;99.90;;;;;;5047948;28;20521;-46
2021/03/03 06:37:04;;;;;;;58.33;26.58;;;0.60;99.90;;;;;;5047561;28;20044;-47
2021/03/03 06:39:34;;;;;;;51.08;24.98;;;0.60;99.90;;;;;;5049735;28;20413;-47
2021/03/03 06:42:05;;;;;;;58.97;25.67;;;0.60;99.90;;;;;;5051923;28;20053;-48
2021/03/03 06:44:49;;;;;;;62.50;28.27;;;0.60;99.90;;;;;;5049202;28;20040;-46
2021/03/03 06:47:16;;;;;;;50.45;23.88;;;0.70;99.90;;;;;;5048634;28;20057;-47
2021/03/03 06:49:41;;;;;;;56.80;26.23;;;0.70;99.90;;;;;;5065360;28;20033;-47
2021/03/03 06:52:07;;;;;;;52.58;24.63;;;0.80;99.90;;;;;;5052790;28;20060;-46
2021/03/03 06:54:33;;;;;;;57.90;26.80;;;0.80;99.90;;;;;;5050270;28;20028;-46
2021/03/03 06:57:03;;;;;;;57.60;25.88;;;0.90;99.90;;;;;;5061078;28;20024;-45
2021/03/03 06:59:33;;;;;;;55.72;23.92;;;0.90;99.90;;;;;;5067052;28;20028;-47
2021/03/03 07:02:09;;;;;;;48.08;21.90;;;0.90;99.90;;;;;;5068593;28;20588;-45
2021/03/03 07:04:40;;;;;;;59.33;25.75;;;1.00;99.90;;;;;;5067319;28;20143;-47
2021/03/03 07:07:12;;;;;;;53.47;24.10;;;1.10;99.90;;;;;;5055060;28;20032;-46
2021/03/03 07:09:41;;;;;;;49.38;23.25;;;1.10;99.90;;;;;;5048495;28;20032;-48
2021/03/03 07:12:12;;;;;;;46.15;23.50;;;1.20;99.90;;;;;;5052448;28;20029;-47
2021/03/03 07:14:40;;;;;;;48.08;22.95;;;1.30;99.90;;;;;;5062762;28;20032;-48
2021/03/03 07:17:21;;;;;;;50.58;23.92;;;1.30;99.90;;;;;;5056795;28;20035;-47
2021/03/03 07:19:57;;;;;;;50.35;24.00;;;1.40;99.90;;;;;;5049722;28;20091;-48
2021/03/03 07:22:27;;;;;;;49.85;25.27;;;1.50;99.90;;;;;;5051240;28;20033;-47
2021/03/03 07:25:08;;;;;;;53.00;25.02;;;1.60;99.90;;;;;;5052132;28;20520;-46
2021/03/03 07:27:35;;;;;;;50.30;23.05;;;1.60;99.90;;;;;;5057490;28;20498;-46
2021/03/03 07:30:15;;;;;;;50.22;24.52;;;1.80;99.90;;;;;;5057666;28;20040;-46
2021/03/03 07:32:41;;;;;;;47.60;23.10;;;1.90;99.90;;;;;;5067947;28;20051;-48
2021/03/03 07:35:09;;;;;;;47.75;22.83;;;2.00;99.90;;;;;;5067205;28;20028;-46
2021/03/03 07:37:37;;;;;;;50.58;24.27;;;2.10;99.90;;;;;;5053016;28;20032;-47
2021/03/03 07:40:04;;;;;;;49.88;25.10;;;2.20;99.90;;;;;;5049082;28;20021;-48
2021/03/03 07:42:31;;;;;;;55.65;27.15;;;2.30;99.90;;;;;;5056913;28;20170;-46
2021/03/03 07:44:59;;;;;;;56.42;27.48;;;2.40;99.90;;;;;;5067671;28;20278;-49
2021/03/03 07:47:28;;;;;;;56.05;25.85;;;2.60;99.90;;;;;;5067111;28;20536;-47
2021/03/03 07:49:58;;;;;;;53.40;25.98;;;2.70;99.90;;;;;;5066284;28;20066;-50
2021/03/03 07:52:24;;;;;;;56.17;24.25;;;2.90;99.90;;;;;;5048053;28;20168;-46
2021/03/03 07:54:50;;;;;;;54.55;25.98;;;3.00;99.90;;;;;;5047513;28;20111;-48
2021/03/03 07:57:16;;;;;;;53.80;25.85;;;3.20;99.90;;;;;;5052320;28;20418;-48
2021/03/03 07:59:43;;;;;;;57.03;27.50;;;3.30;99.90;;;;;;5049020;28;20032;-49
2021/03/03 08:02:09;;;;;;;52.35;25.67;;;3.50;99.90;;;;;;5046256;28;20025;-48
2021/03/03 08:04:37;;;;;;;49.55;26.00;;;3.70;99.90;;;;;;5048014;28;20468;-46
2021/03/03 08:07:19;;;;;;;48.92;25.20;;;3.80;99.90;;;;;;5047589;28;20047;-48
2021/03/03 08:10:20;;;;;;;47.33;23.73;;;4.00;99.90;;;;;;5048948;28;20108;-50
2021/03/03 08:13:09;;;;;;;46.15;23.88;;;4.20;99.90;;;;;;5059151;28;20028;-47
2021/03/03 08:15:37;;;;;;;43.72;23.15;;;4.40;99.90;;;;;;5066936;28;20024;-47
2021/03/03 08:18:19;;;;;;;45.80;22.95;;;4.60;99.90;;;;;;5067441;28;20021;-48
2021/03/03 08:21:17;;;;;;;44.88;22.98;;;4.80;99.90;;;;;;5060510;28;20053;-48
2021/03/03 08:23:47;;;;;;;38.78;20.08;;;4.90;99.90;;;;;;5023860;28;20037;-48
2021/03/03 08:26:15;;;;;;;39.10;20.65;;;5.20;99.90;;;;;;5050006;28;21443;-49
2021/03/03 08:28:42;;;;;;;36.92;19.13;;;5.40;99.90;;;;;;5069279;28;20031;-47
2021/03/03 08:31:17;;;;;;;33.92;16.60;;;5.70;99.90;;;;;;5088904;28;20067;-50
2021/03/03 08:33:42;;;;;;;34.20;17.10;;;6.00;99.90;;;;;;5070500;28;20116;-47
2021/03/03 08:36:31;;;;;;;29.67;14.80;;;6.30;99.90;;;;;;5054957;28;20472;-48
2021/03/03 08:38:57;;;;;;;27.08;13.85;;;6.60;99.90;;;;;;5066823;28;20048;-48
2021/03/03 08:41:25;;;;;;;28.35;14.55;;;6.90;99.90;;;;;;5064226;28;20067;-48
2021/03/03 08:44:00;;;;;;;33.55;14.93;;;7.20;99.90;;;;;;5053007;28;20418;-51
2021/03/03 08:46:28;;;;;;;26.50;14.45;;;7.60;99.90;;;;;;5054407;28;20076;-49
2021/03/03 08:48:56;;;;;;;25.48;14.25;;;7.70;99.90;;;;;;5060489;28;20111;-48
2021/03/03 08:51:28;;;;;;;27.38;14.90;;;8.00;99.90;;;;;;5059525;28;20090;-48
2021/03/03 08:53:55;;;;;;;24.70;14.40;;;8.30;99.90;;;;;;5060391;28;20024;-48
2021/03/03 08:56:35;;;;;;;28.58;14.05;;;8.60;99.90;;;;;;5060229;28;20029;-50
2021/03/03 08:59:02;;;;;;;27.90;13.63;;;8.90;99.90;;;;;;5063161;28;20088;-50
2021/03/03 09:02:06;;;;;;;26.05;14.82;;;9.20;99.90;;;;;;5059781;28;20049;-47
2021/03/03 09:04:44;;;;;;;23.50;13.38;;;9.50;99.90;;;;;;5059331;28;20028;-49
2021/03/03 09:07:15;;;;;;;25.80;14.13;;;9.80;99.90;;;;;;5058532;28;20418;-48
2021/03/03 09:09:46;;;;;;;20.08;12.48;;;10.20;99.90;;;;;;5057638;28;20032;-47
2021/03/03 09:12:14;;;;;;;23.33;12.75;;;11.30;99.90;;;;;;5056818;28;20025;-48
2021/03/03 09:14:40;;;;;;;20.25;11.13;;;13.20;93.80;;;;;;5061686;28;20251;-49
2021/03/03 09:17:12;;;;;;;17.05;11.25;;;14.90;85.00;;;;;;5057456;28;20112;-48
2021/03/03 09:19:38;;;;;;;14.30;9.68;;;17.00;67.90;;;;;;5057885;28;20046;-51
2021/03/03 09:22:24;;;;;;;20.80;11.00;;;18.30;62.40;;;;;;5057331;28;20184;-50
2021/03/03 09:24:52;;;;;;;15.90;10.38;;;19.50;53.50;;;;;;5061274;28;20037;-48
2021/03/03 09:27:19;;;;;;;18.23;9.77;;;20.70;51.30;;;;;;5056691;28;20478;-50
2021/03/03 09:29:46;;;;;;;13.73;9.65;;;22.00;49.20;;;;;;5058413;28;20202;-51
2021/03/03 09:32:18;;;;;;;13.38;9.90;;;22.20;44.70;;;;;;5062921;28;20036;-50
2021/03/03 09:35:02;;;;;;;16.20;10.82;;;22.50;44.80;;;;;;5058594;28;20032;-50
2021/03/03 09:37:39;;;;;;;13.90;9.43;;;23.40;42.20;;;;;;5060338;28;20074;-50
2021/03/03 09:40:07;;;;;;;16.95;11.57;;;23.80;42.40;;;;;;5059884;28;20049;-51
2021/03/03 09:42:38;;;;;;;12.75;9.88;;;23.80;39.00;;;;;;5057329;28;20378;-50
2021/03/03 09:45:04;;;;;;;19.70;11.15;;;24.20;40.10;;;;;;5058475;28;20437;-52
2021/03/03 09:47:33;;;;;;;22.10;10.80;;;23.40;38.60;;;;;;5060050;28;20644;-49
2021/03/03 09:50:00;;;;;;;22.83;10.85;;;22.90;40.60;;;;;;5059143;28;20482;-51
2021/03/03 09:52:32;;;;;;;16.65;10.27;;;22.90;39.90;;;;;;5055968;28;20033;-51
2021/03/03 09:54:58;;;;;;;18.42;10.90;;;23.30;41.50;;;;;;5059347;28;20064;-49
2021/03/03 09:57:24;;;;;;;12.25;9.18;;;23.80;40.60;;;;;;5056160;28;20056;-48
2021/03/03 09:59:51;;;;;;;15.35;10.32;;;24.20;39.30;;;;;;5058542;28;20067;-50
2021/03/03 10:02:40;;;;;;;15.18;10.30;;;24.20;39.70;;;;;;5055973;28;20121;-51
2021/03/03 10:05:07;;;;;;;20.17;11.00;;;25.20;39.90;;;;;;5032496;28;20116;-53
2021/03/03 10:07:34;;;;;;;21.92;10.18;;;26.00;36.50;;;;;;5034963;28;20026;-50
2021/03/03 10:10:01;;;;;;;15.57;10.15;;;24.90;37.50;;;;;;5054146;28;20065;-50
2021/03/03 10:12:34;;;;;;;16.25;10.27;;;25.30;38.40;;;;;;5057319;28;20428;-52
2021/03/03 10:15:07;;;;;;;17.90;11.43;;;25.00;35.90;;;;;;5059825;28;20025;-48
2021/03/03 10:17:39;;;;;;;16.92;9.90;;;25.20;35.60;;;;;;5062895;28;20025;-51
2021/03/03 10:20:25;;;;;;;17.45;10.63;;;24.50;37.60;;;;;;5069372;28;20052;-51
2021/03/03 10:22:51;;;;;;;14.98;10.60;;;23.80;37.70;;;;;;5050504;28;20033;-51
2021/03/03 10:25:16;;;;;;;18.38;10.73;;;23.40;39.20;;;;;;5049741;28;20412;-50
2021/03/03 10:27:42;;;;;;;17.38;10.30;;;22.30;40.40;;;;;;5056877;28;20075;-50
2021/03/03 10:30:25;;;;;;;17.00;10.00;;;21.00;42.20;;;;;;5057257;28;20461;-49
2021/03/03 10:32:53;;;;;;;19.08;10.98;;;20.20;44.10;;;;;;5054997;28;20060;-50
2021/03/03 10:35:19;;;;;;;20.70;12.02;;;19.60;44.00;;;;;;5061361;28;20148;-48
2021/03/03 10:37:45;;;;;;;19.27;11.98;;;18.40;47.10;;;;;;5051380;28;20612;-51
2021/03/03 10:40:15;;;;;;;21.90;11.75;;;18.40;48.00;;;;;;5055980;28;20115;-48
2021/03/03 10:42:41;;;;;;;20.77;12.10;;;18.40;47.80;;;;;;5060238;28;20109;-51
2021/03/03 10:45:33;;;;;;;16.80;10.75;;;19.20;47.90;;;;;;5056224;28;20075;-50
2021/03/03 10:47:59;;;;;;;19.45;11.60;;;19.90;46.20;;;;;;5046361;28;20041;-51
2021/03/03 10:50:24;;;;;;;18.20;10.63;;;20.50;44.70;;;;;;5049173;28;20029;-51
2021/03/03 10:53:04;;;;;;;18.38;10.55;;;20.60;46.70;;;;;;5049537;28;20108;-51
2021/03/03 10:55:35;;;;;;;21.58;12.65;;;20.60;45.50;;;;;;5049123;28;20040;-50
2021/03/03 10:58:10;;;;;;;18.40;10.60;;;20.30;44.00;;;;;;5060698;28;20032;-48
2021/03/03 11:01:00;;;;;;;19.20;10.13;;;19.60;47.20;;;;;;5061293;28;20032;-50
2021/03/03 11:03:26;;;;;;;25.23;11.18;;;20.20;45.80;;;;;;5068466;28;20513;-50
2021/03/03 11:05:53;;;;;;;16.67;9.55;;;20.90;42.80;;;;;;5068760;28;20024;-47
2021/03/03 11:08:20;;;;;;;18.55;10.73;;;21.70;41.60;;;;;;5055037;28;20036;-49
2021/03/03 11:10:45;;;;;;;19.70;11.77;;;22.40;41.00;;;;;;5069216;28;20063;-49
2021/03/03 11:13:12;;;;;;;19.92;10.75;;;22.30;40.90;;;;;;5069985;28;20072;-47
2021/03/03 11:15:40;;;;;;;16.25;11.23;;;22.60;40.90;;;;;;5052220;28;20033;-49
2021/03/03 11:18:06;;;;;;;18.83;11.65;;;23.20;39.70;;;;;;5069392;28;20032;-49
2021/03/03 11:20:31;;;;;;;21.08;12.13;;;23.20;39.60;;;;;;5057616;28;20490;-50
2021/03/03 11:22:56;;;;;;;17.52;11.63;;;23.00;39.80;;;;;;5050060;28;20734;-50
2021/03/03 11:25:22;;;;;;;20.83;12.02;;;22.70;40.20;;;;;;5049343;28;20032;-49
2021/03/03 11:27:48;;;;;;;19.05;12.05;;;22.30;41.10;;;;;;5066130;28;20116;-49
2021/03/03 11:30:14;;;;;;;19.40;11.63;;;22.00;42.50;;;;;;5064649;28;20037;-47
2021/03/03 11:32:39;;;;;;;28.65;12.57;;;21.90;42.60;;;;;;5057412;28;20037;-51
2021/03/03 11:35:05;;;;;;;16.48;11.55;;;22.50;40.80;;;;;;5049295;28;20083;-49
2021/03/03 11:37:31;;;;;;;21.70;12.23;;;22.60;42.00;;;;;;5049179;28;20032;-50
2021/03/03 11:39:56;;;;;;;18.05;11.73;;;22.80;41.30;;;;;;5064201;28;20047;-51
2021/03/03 11:42:21;;;;;;;19.42;13.27;;;23.00;40.90;;;;;;5051109;28;20033;-50
2021/03/03 11:44:47;;;;;;;20.05;11.93;;;22.60;40.20;;;;;;5055072;28;20029;-51
2021/03/03 11:47:13;;;;;;;19.98;12.95;;;22.00;42.30;;;;;;5046187;28;20074;-51
2021/03/03 11:49:38;;;;;;;21.35;12.95;;;21.70;43.80;;;;;;5049271;28;20073;-50
2021/03/03 11:52:04;;;;;;;21.35;12.38;;;21.90;43.90;;;;;;5047946;28;20028;-51
2021/03/03 11:54:30;;;;;;;21.63;12.13;;;21.90;43.60;;;;;;5048925;28;20119;-48
2021/03/03 11:56:55;;;;;;;18.48;12.65;;;22.00;44.20;;;;;;5056254;28;20075;-51
2021/03/03 11:59:20;;;;;;;25.23;13.25;;;22.00;42.10;;;;;;5048905;28;20076;-50
2021/03/03 12:01:48;;;;;;;22.20;14.05;;;21.80;41.90;;;;;;5047651;28;20021;-51
2021/03/03 12:04:13;;;;;;;18.30;12.13;;;21.60;41.70;;;;;;5047864;28;20021;-51
2021/03/03 12:06:39;;;;;;;19.90;11.68;;;20.60;43.80;;;;;;5058060;28;20490;-49
2021/03/03 12:09:05;;;;;;;24.38;13.30;;;20.00;46.00;;;;;;5066151;28;20039;-50
2021/03/03 12:11:30;;;;;;;20.65;12.27;;;19.60;46.70;;;;;;5058860;28;20021;-50
2021/03/03 12:13:56;;;;;;;22.23;12.30;;;19.40;47.90;;;;;;5047067;28;20127;-48
2021/03/03 12:16:21;;;;;;;23.88;13.27;;;19.40;48.20;;;;;;5061257;28;20371;-48
2021/03/03 12:18:47;;;;;;;22.67;14.07;;;19.30;47.80;;;;;;5065871;28;20032;-49
2021/03/03 12:21:12;;;;;;;28.88;13.52;;;19.20;47.70;;;;;;5052933;28;20052;-48
2021/03/03 12:23:39;;;;;;;27.92;13.27;;;19.30;49.10;;;;;;5056302;28;20021;-48
2021/03/03 12:26:05;;;;;;;23.67;14.55;;;19.30;48.70;;;;;;5055407;28;20037;-47
2021/03/03 12:28:31;;;;;;;24.13;14.23;;;19.10;48.30;;;;;;5056111;28;20507;-50
2021/03/03 12:30:57;;;;;;;28.73;14.43;;;19.40;49.80;;;;;;5058167;28;20041;-48
2021/03/03 12:33:22;;;;;;;27.35;14.90;;;19.50;46.50;;;;;;5056270;28;20300;-47
2021/03/03 12:35:48;;;;;;;36.35;14.93;;;19.40;47.20;;;;;;5053047;28;20025;-48
2021/03/03 12:38:13;;;;;;;27.17;15.15;;;19.50;46.90;;;;;;5063822;28;20035;-48
2021/03/03 12:40:40;;;;;;;33.05;15.60;;;19.50;47.30;;;;;;5064080;28;20028;-50